createdAt,value
2018-01-29T00:02:09.557Z,97407.19
2018-01-29T00:04:37.128Z,97410.36
2018-01-29T00:07:04.749Z,97392.23
2018-01-29T00:09:32.323Z,97403.23
2018-01-29T00:11:59.948Z,97403.36
2018-01-29T00:14:27.521Z,97399.34
2018-01-29T00:16:55.100Z,97393.70
2018-01-29T00:19:22.811Z,97394.05
2018-01-29T00:21:50.542Z,97399.98
2018-01-29T00:24:18.188Z,97399.37
2018-01-29T00:26:45.752Z,97419.28
2018-01-29T00:29:13.319Z,97408.25
2018-01-29T00:31:40.888Z,97417.13
2018-01-29T00:34:08.510Z,97420.70
2018-01-29T00:36:36.120Z,97426.31
2018-01-29T00:39:03.724Z,97417.97
2018-01-29T00:41:31.469Z,97418.44
2018-01-29T00:43:59.882Z,97417.44
2018-01-29T00:46:27.441Z,97409.38
2018-01-29T00:48:54.974Z,97415.39
2018-01-29T00:51:23.028Z,97422.30
2018-01-29T00:53:50.629Z,97412.77
2018-01-29T00:59:09.286Z,97424.61
2018-01-29T01:01:36.853Z,97426.95
2018-01-29T01:04:04.438Z,97435.71
2018-01-29T01:06:32.079Z,97437.17
2018-01-29T01:08:59.671Z,97435.59
2018-01-29T01:11:27.277Z,97436.80
2018-01-29T01:13:54.909Z,97435.02
2018-01-29T01:16:22.541Z,97438.45
2018-01-29T01:18:50.113Z,97442.00
2018-01-29T01:21:17.674Z,97438.10
2018-01-29T01:23:45.248Z,97434.88
2018-01-29T01:26:12.820Z,97432.73
2018-01-29T01:28:40.396Z,97435.82
2018-01-29T01:31:07.987Z,97434.80
2018-01-29T01:33:35.611Z,97430.19
2018-01-29T01:36:03.348Z,97434.52
2018-01-29T01:38:30.930Z,97428.23
2018-01-29T01:40:58.526Z,97426.27
2018-01-29T01:43:26.158Z,97426.16
2018-01-29T01:45:53.774Z,97414.19
2018-01-29T01:48:21.328Z,97414.42
2018-01-29T01:50:48.881Z,97409.41
2018-01-29T01:53:16.460Z,97415.84
2018-01-29T01:55:44.102Z,97410.84
2018-01-29T01:58:11.819Z,97402.84
2018-01-29T02:00:39.369Z,97394.44
2018-01-29T02:03:07.179Z,97406.45
2018-01-29T02:05:34.790Z,97402.09
2018-01-29T02:08:02.389Z,97397.75
2018-01-29T02:10:30.333Z,97403.56
2018-01-29T02:12:57.944Z,97386.14
2018-01-29T02:15:26.742Z,97398.55
2018-01-29T02:17:54.477Z,97391.07
2018-01-29T02:20:22.053Z,97387.34
2018-01-29T02:22:49.647Z,97388.58
2018-01-29T02:25:17.199Z,97394.80
2018-01-29T02:27:44.821Z,97395.04
2018-01-29T02:30:12.409Z,97386.87
2018-01-29T02:32:39.977Z,97373.63
2018-01-29T02:35:07.849Z,97380.01
2018-01-29T02:37:35.750Z,97373.09
2018-01-29T02:40:03.344Z,97374.76
2018-01-29T02:42:30.955Z,97383.20
2018-01-29T02:44:58.581Z,97379.69
2018-01-29T02:47:26.504Z,97376.69
2018-01-29T02:49:54.081Z,97373.64
2018-01-29T02:52:21.755Z,97371.02
2018-01-29T02:54:49.411Z,97366.99
2018-01-29T02:57:17.017Z,97365.98
2018-01-29T02:59:45.118Z,97368.70
2018-01-29T03:02:13.099Z,97368.95
2018-01-29T03:04:42.299Z,97363.27
2018-01-29T03:07:10.406Z,97360.16
2018-01-29T03:09:37.963Z,97373.23
2018-01-29T03:12:05.628Z,97360.64
2018-01-29T03:14:35.584Z,97356.37
2018-01-29T03:17:03.202Z,97364.15
2018-01-29T03:19:30.840Z,97343.41
2018-01-29T03:21:58.426Z,97356.97
2018-01-29T03:27:03.331Z,97357.48
2018-01-29T03:29:31.439Z,97358.84
2018-01-29T03:31:58.994Z,97361.47
2018-01-29T03:34:26.761Z,97358.23
2018-01-29T03:36:55.637Z,97355.17
2018-01-29T03:39:23.343Z,97359.14
2018-01-29T03:41:51.069Z,97361.14
2018-01-29T03:44:18.667Z,97356.98
2018-01-29T03:46:46.272Z,97357.58
2018-01-29T03:49:14.264Z,97357.14
2018-01-29T03:51:41.854Z,97356.20
2018-01-29T03:54:09.468Z,97342.13
2018-01-29T03:56:37.064Z,97354.52
2018-01-29T03:59:04.674Z,97352.45
2018-01-29T04:01:34.873Z,97350.73
2018-01-29T04:04:02.441Z,97352.22
2018-01-29T04:06:30.035Z,97348.47
2018-01-29T04:08:57.623Z,97359.95
2018-01-29T04:11:25.428Z,97358.47
2018-01-29T04:13:53.036Z,97356.58
2018-01-29T04:16:20.801Z,97366.84
2018-01-29T04:18:48.547Z,97363.27
2018-01-29T04:21:16.117Z,97372.14
2018-01-29T04:23:43.788Z,97368.97
2018-01-29T04:26:11.527Z,97360.91
2018-01-29T04:28:39.081Z,97364.87
2018-01-29T04:31:07.756Z,97367.11
2018-01-29T04:33:35.513Z,97364.48
2018-01-29T04:36:03.138Z,97360.67
2018-01-29T04:38:30.695Z,97364.53
2018-01-29T04:40:58.343Z,97361.33
2018-01-29T04:43:26.741Z,97361.82
2018-01-29T04:46:04.311Z,97363.41
2018-01-29T04:48:31.900Z,97365.34
2018-01-29T04:50:59.646Z,97364.50
2018-01-29T04:53:27.469Z,97369.50
2018-01-29T04:55:55.069Z,97360.86
2018-01-29T04:58:22.733Z,97369.80
2018-01-29T05:00:50.389Z,97362.14
2018-01-29T05:03:17.963Z,97366.31
2018-01-29T05:05:45.505Z,97364.89
2018-01-29T05:08:13.088Z,97369.16
2018-01-29T05:10:40.639Z,97363.09
2018-01-29T05:13:09.512Z,97364.39
2018-01-29T05:15:37.173Z,97365.98
2018-01-29T05:18:05.583Z,97354.34
2018-01-29T05:20:33.192Z,97364.27
2018-01-29T05:23:00.770Z,97355.17
2018-01-29T05:25:28.513Z,97358.20
2018-01-29T05:27:56.113Z,97366.25
2018-01-29T05:30:23.667Z,97356.41
2018-01-29T05:32:51.223Z,97369.70
2018-01-29T05:35:33.726Z,97358.63
2018-01-29T05:41:00.894Z,97370.62
2018-01-29T05:43:28.464Z,97360.71
2018-01-29T05:45:56.030Z,97365.70
2018-01-29T05:48:23.667Z,97358.51
2018-01-29T05:50:51.226Z,97364.02
2018-01-29T05:53:19.343Z,97368.66
2018-01-29T05:55:47.154Z,97372.37
2018-01-29T05:58:14.739Z,97380.07
2018-01-29T06:00:42.341Z,97377.30
2018-01-29T06:03:10.180Z,97392.28
2018-01-29T06:05:37.814Z,97393.33
2018-01-29T06:08:05.419Z,97389.70
2018-01-29T06:10:33.136Z,97386.83
2018-01-29T06:13:00.718Z,97383.86
2018-01-29T06:15:28.359Z,97380.18
2018-01-29T06:17:56.018Z,97391.69
2018-01-29T06:20:23.608Z,97379.13
2018-01-29T06:22:51.223Z,97384.09
2018-01-29T06:25:18.799Z,97382.09
2018-01-29T06:27:46.403Z,97376.50
2018-01-29T06:30:14.028Z,97383.61
2018-01-29T06:32:41.667Z,97372.91
2018-01-29T06:35:09.859Z,97386.43
2018-01-29T06:37:37.757Z,97382.37
2018-01-29T06:40:05.346Z,97386.61
2018-01-29T06:42:32.940Z,97387.13
2018-01-29T06:45:00.529Z,97395.21
2018-01-29T06:47:28.167Z,97388.72
2018-01-29T06:49:55.713Z,97395.28
2018-01-29T06:52:24.509Z,97393.98
2018-01-29T06:54:52.099Z,97388.95
2018-01-29T06:57:19.640Z,97388.39
2018-01-29T06:59:47.216Z,97390.60
2018-01-29T07:02:14.881Z,97387.45
2018-01-29T07:04:42.819Z,97396.32
2018-01-29T07:07:13.689Z,97392.48
2018-01-29T07:09:41.403Z,97402.68
2018-01-29T07:12:08.962Z,97388.58
2018-01-29T07:14:37.365Z,97383.89
2018-01-29T07:17:05.072Z,97375.84
2018-01-29T07:19:32.756Z,97374.98
2018-01-29T07:22:00.776Z,97375.75
2018-01-29T07:24:28.348Z,97374.73
2018-01-29T07:26:57.783Z,97363.86
2018-01-29T07:29:25.340Z,97371.52
2018-01-29T07:31:52.957Z,97372.67
2018-01-29T07:34:20.586Z,97367.12
2018-01-29T07:36:48.156Z,97377.48
2018-01-29T07:39:16.052Z,97375.44
2018-01-29T07:41:43.632Z,97377.55
2018-01-29T07:44:13.037Z,97376.28
2018-01-29T07:46:40.621Z,97379.12
2018-01-29T07:49:08.235Z,97371.73
2018-01-29T07:51:35.870Z,97376.72
2018-01-29T07:54:03.749Z,97376.50
2018-01-29T07:56:31.330Z,97384.22
2018-01-29T07:58:59.602Z,97372.28
2018-01-29T08:01:27.174Z,97365.85
2018-01-29T08:03:54.766Z,97368.89
2018-01-29T08:06:23.335Z,97377.13
2018-01-29T08:08:50.997Z,97362.95
2018-01-29T08:11:18.551Z,97370.05
2018-01-29T08:13:46.248Z,97366.80
2018-01-29T08:16:15.390Z,97364.63
2018-01-29T08:18:42.969Z,97361.34
2018-01-29T08:21:11.102Z,97359.45
2018-01-29T08:23:38.716Z,97361.23
2018-01-29T08:26:06.323Z,97345.94
2018-01-29T08:28:33.899Z,97363.20
2018-01-29T08:31:01.455Z,97353.29
2018-01-29T08:33:29.469Z,97354.45
2018-01-29T08:35:57.076Z,97358.61
2018-01-29T08:38:24.814Z,97359.52
2018-01-29T08:40:52.657Z,97357.22
2018-01-29T08:43:20.243Z,97362.73
2018-01-29T08:45:47.839Z,97356.26
2018-01-29T08:48:15.514Z,97362.02
2018-01-29T08:50:43.155Z,97359.74
2018-01-29T08:53:11.257Z,97359.77
2018-01-29T08:55:38.952Z,97352.45
2018-01-29T08:58:06.521Z,97356.80
2018-01-29T09:00:34.152Z,97354.98
2018-01-29T09:03:01.743Z,97347.04
2018-01-29T09:05:29.728Z,97360.55
2018-01-29T09:07:57.359Z,97352.89
2018-01-29T09:10:25.043Z,97339.75
2018-01-29T09:12:52.630Z,97339.14
2018-01-29T09:15:20.222Z,97344.38
2018-01-29T09:17:47.851Z,97347.56
2018-01-29T09:20:15.460Z,97340.80
2018-01-29T09:22:43.020Z,97352.84
2018-01-29T09:25:10.819Z,97346.66
2018-01-29T09:27:38.445Z,97348.77
2018-01-29T09:30:06.103Z,97344.59
2018-01-29T09:32:33.777Z,97351.59
2018-01-29T09:35:01.366Z,97351.41
2018-01-29T09:37:28.931Z,97359.27
2018-01-29T09:39:56.534Z,97356.37
2018-01-29T09:42:24.114Z,97356.03
2018-01-29T09:44:51.706Z,97356.97
2018-01-29T09:47:19.277Z,97363.02
2018-01-29T09:49:46.850Z,97355.52
2018-01-29T09:52:14.476Z,97351.92
2018-01-29T09:54:42.069Z,97345.05
2018-01-29T09:57:12.218Z,97353.46
2018-01-29T09:59:39.801Z,97360.11
2018-01-29T10:02:07.399Z,97347.16
2018-01-29T10:04:34.958Z,97329.51
2018-01-29T10:07:02.514Z,97340.37
2018-01-29T10:09:30.132Z,97339.98
2018-01-29T10:11:57.679Z,97331.05
2018-01-29T10:14:25.275Z,97330.92
2018-01-29T10:16:52.848Z,97326.94
2018-01-29T10:19:20.398Z,97316.66
2018-01-29T10:21:47.968Z,97316.14
2018-01-29T10:24:15.636Z,97316.60
2018-01-29T10:26:43.249Z,97319.11
2018-01-29T10:29:11.323Z,97308.50
2018-01-29T10:31:38.961Z,97306.40
2018-01-29T10:34:06.532Z,97288.74
2018-01-29T10:36:34.182Z,97275.64
2018-01-29T10:39:01.825Z,97266.88
2018-01-29T10:41:29.811Z,97263.75
2018-01-29T10:43:57.386Z,97250.88
2018-01-29T10:46:25.606Z,97258.67
2018-01-29T10:48:53.169Z,97254.37
2018-01-29T10:51:20.741Z,97248.52
2018-01-29T10:53:48.340Z,97239.12
2018-01-29T10:56:15.958Z,97242.02
2018-01-29T10:58:43.501Z,97234.16
2018-01-29T11:01:16.733Z,97254.45
2018-01-29T11:03:44.341Z,97238.92
2018-01-29T11:06:12.009Z,97237.12
2018-01-29T11:08:39.729Z,97223.95
2018-01-29T11:11:07.464Z,97222.53
2018-01-29T11:13:35.366Z,97225.84
2018-01-29T11:16:04.657Z,97208.59
2018-01-29T11:18:32.597Z,97214.70
2018-01-29T11:21:01.219Z,97203.58
2018-01-29T11:23:30.220Z,97192.29
2018-01-29T11:25:57.866Z,97199.97
2018-01-29T11:28:25.434Z,97192.19
2018-01-29T11:30:53.067Z,97177.04
2018-01-29T11:33:20.952Z,97185.28
2018-01-29T11:35:50.600Z,97185.57
2018-01-29T11:38:18.232Z,97170.40
2018-01-29T11:40:46.908Z,97158.20
2018-01-29T11:43:14.758Z,97159.66
2018-01-29T11:45:42.650Z,97145.55
2018-01-29T11:48:10.407Z,97139.80
2018-01-29T11:50:37.943Z,97135.41
2018-01-29T11:53:06.097Z,97128.55
2018-01-29T11:55:34.350Z,97125.06
2018-01-29T11:58:05.259Z,97117.27
2018-01-29T12:00:32.860Z,97118.96
2018-01-29T12:03:00.425Z,97109.04
2018-01-29T12:05:28.095Z,97097.17
2018-01-29T12:07:55.736Z,97109.99
2018-01-29T12:10:23.362Z,97109.32
2018-01-29T12:12:50.929Z,97107.63
2018-01-29T12:15:18.510Z,97086.93
2018-01-29T12:17:46.094Z,97085.31
2018-01-29T12:20:13.683Z,97079.00
2018-01-29T12:22:41.291Z,97090.31
2018-01-29T12:25:08.893Z,97064.27
2018-01-29T12:27:36.453Z,97062.70
2018-01-29T12:30:04.018Z,97070.25
2018-01-29T12:32:31.612Z,97061.21
2018-01-29T12:34:59.197Z,97051.68
2018-01-29T12:37:26.789Z,97060.73
2018-01-29T12:39:54.391Z,97048.38
2018-01-29T12:42:21.983Z,97029.58
2018-01-29T12:44:49.624Z,97030.74
2018-01-29T12:47:17.214Z,97031.48
2018-01-29T12:49:44.858Z,97017.11
2018-01-29T12:52:12.423Z,97017.85
2018-01-29T12:54:40.344Z,97022.90
2018-01-29T12:57:07.973Z,97019.83
2018-01-29T12:59:35.614Z,97027.61
2018-01-29T13:02:03.195Z,97015.59
2018-01-29T13:04:30.813Z,97011.38
2018-01-29T13:06:58.365Z,97000.67
2018-01-29T13:09:25.953Z,96994.77
2018-01-29T13:11:53.581Z,96993.90
2018-01-29T13:14:21.157Z,96987.26
2018-01-29T13:16:48.781Z,96988.91
2018-01-29T13:19:16.399Z,96981.64
2018-01-29T13:21:43.962Z,96971.73
2018-01-29T13:24:11.509Z,96964.98
2018-01-29T13:26:39.086Z,96959.50
2018-01-29T13:29:06.693Z,96949.11
2018-01-29T13:31:34.555Z,96948.73
2018-01-29T13:34:02.140Z,96955.55
2018-01-29T13:36:29.784Z,96947.33
2018-01-29T13:38:57.911Z,96935.97
2018-01-29T13:41:26.031Z,96933.46
2018-01-29T13:43:53.647Z,96917.31
2018-01-29T13:46:21.189Z,96925.79
2018-01-29T13:48:48.781Z,96918.81
2018-01-29T13:51:16.369Z,96925.27
2018-01-29T13:53:43.949Z,96915.36
2018-01-29T13:56:11.509Z,96926.01
2018-01-29T13:58:39.063Z,96910.22
2018-01-29T14:01:06.683Z,96904.13
2018-01-29T14:03:34.240Z,96905.19
2018-01-29T14:06:01.809Z,96904.83
2018-01-29T14:08:29.623Z,96897.91
2018-01-29T14:10:57.313Z,96913.71
2018-01-29T14:13:24.950Z,96899.67
2018-01-29T14:15:52.648Z,96911.78
2018-01-29T14:18:20.303Z,96898.50
2018-01-29T14:20:48.200Z,96911.17
2018-01-29T14:23:15.826Z,96911.55
2018-01-29T14:25:43.370Z,96910.21
2018-01-29T14:28:10.937Z,96902.84
2018-01-29T14:30:38.497Z,96907.87
2018-01-29T14:33:06.139Z,96896.61
2018-01-29T14:35:33.727Z,96886.11
2018-01-29T14:38:01.329Z,96891.17
2018-01-29T14:40:29.171Z,96882.84
2018-01-29T14:42:56.805Z,96877.17
2018-01-29T14:45:24.353Z,96879.30
2018-01-29T14:47:52.146Z,96875.67
2018-01-29T14:50:19.784Z,96867.13
2018-01-29T14:52:47.393Z,96866.11
2018-01-29T14:55:14.988Z,96855.23
2018-01-29T14:57:42.581Z,96851.59
2018-01-29T15:00:10.202Z,96855.66
2018-01-29T15:02:37.823Z,96835.98
2018-01-29T15:05:05.420Z,96835.91
2018-01-29T15:07:33.000Z,96831.30
2018-01-29T15:10:00.582Z,96827.83
2018-01-29T15:12:28.136Z,96822.70
2018-01-29T15:14:55.758Z,96825.61
2018-01-29T15:17:23.360Z,96825.06
2018-01-29T15:19:50.979Z,96816.44
2018-01-29T15:22:18.567Z,96822.56
2018-01-29T15:24:46.159Z,96817.75
2018-01-29T15:27:13.748Z,96816.27
2018-01-29T15:29:41.302Z,96810.62
2018-01-29T15:32:08.864Z,96801.38
2018-01-29T15:34:36.468Z,96798.81
2018-01-29T15:37:04.230Z,96790.38
2018-01-29T15:39:31.849Z,96790.23
2018-01-29T15:41:59.417Z,96792.00
2018-01-29T15:44:27.015Z,96793.48
2018-01-29T15:46:54.631Z,96787.66
2018-01-29T15:49:22.190Z,96784.15
2018-01-29T15:51:49.823Z,96784.03
2018-01-29T15:54:17.411Z,96793.16
2018-01-29T15:56:44.985Z,96791.97
2018-01-29T15:59:12.715Z,96795.05
2018-01-29T16:01:40.350Z,96794.31
2018-01-29T16:04:07.883Z,96800.58
2018-01-29T16:06:35.496Z,96790.79
2018-01-29T16:09:03.364Z,96798.83
2018-01-29T16:11:32.999Z,96793.66
2018-01-29T16:14:00.574Z,96792.30
2018-01-29T16:16:28.149Z,96792.96
2018-01-29T16:18:55.693Z,96798.85
2018-01-29T16:21:23.278Z,96794.80
2018-01-29T16:23:50.896Z,96793.41
2018-01-29T16:26:18.478Z,96795.41
2018-01-29T16:28:46.050Z,96798.80
2018-01-29T16:31:13.645Z,96789.30
2018-01-29T16:33:41.227Z,96787.23
2018-01-29T16:36:08.805Z,96782.69
2018-01-29T16:38:36.385Z,96781.93
2018-01-29T16:41:04.030Z,96781.52
2018-01-29T16:43:31.609Z,96784.94
2018-01-29T16:46:00.083Z,96780.56
2018-01-29T16:48:27.701Z,96779.25
2018-01-29T16:50:55.267Z,96787.50
2018-01-29T16:53:23.263Z,96784.49
2018-01-29T16:55:50.966Z,96785.87
2018-01-29T16:58:18.665Z,96780.02
2018-01-29T17:00:46.358Z,96781.84
2018-01-29T17:03:13.893Z,96780.94
2018-01-29T17:05:42.489Z,96774.75
2018-01-29T17:08:10.257Z,96764.98
2018-01-29T17:10:37.786Z,96758.68
2018-01-29T17:13:05.450Z,96757.34
2018-01-29T17:15:33.128Z,96749.22
2018-01-29T17:18:00.679Z,96751.66
2018-01-29T17:20:28.339Z,96745.11
2018-01-29T17:22:56.048Z,96736.32
2018-01-29T17:25:24.423Z,96730.77
2018-01-29T17:27:52.134Z,96723.90
2018-01-29T17:30:19.706Z,96725.15
2018-01-29T17:32:47.421Z,96721.62
2018-01-29T17:35:15.436Z,96718.27
2018-01-29T17:37:43.058Z,96719.70
2018-01-29T17:40:10.639Z,96715.50
2018-01-29T17:42:38.235Z,96719.94
2018-01-29T17:45:06.387Z,96714.80
2018-01-29T17:47:33.952Z,96710.55
2018-01-29T17:50:01.607Z,96703.66
2018-01-29T17:52:29.203Z,96701.48
2018-01-29T17:54:56.837Z,96699.25
2018-01-29T17:57:24.651Z,96691.30
2018-01-29T17:59:52.248Z,96691.65
2018-01-29T18:02:19.800Z,96692.02
2018-01-29T18:04:47.383Z,96693.94
2018-01-29T18:07:15.235Z,96687.69
2018-01-29T18:09:42.951Z,96684.84
2018-01-29T18:12:11.174Z,96682.90
2018-01-29T18:14:38.829Z,96676.20
2018-01-29T18:17:06.480Z,96688.27
2018-01-29T18:19:34.039Z,96681.16
2018-01-29T18:22:01.646Z,96680.69
2018-01-29T18:24:29.212Z,96685.00
2018-01-29T18:26:56.762Z,96680.77
2018-01-29T18:29:24.664Z,96693.31
2018-01-29T18:31:52.268Z,96680.86
2018-01-29T18:34:19.923Z,96685.23
2018-01-29T18:36:47.690Z,96682.88
2018-01-29T18:39:15.267Z,96687.53
2018-01-29T18:41:42.842Z,96675.11
2018-01-29T18:44:10.762Z,96679.04
2018-01-29T18:46:38.480Z,96676.27
2018-01-29T18:49:06.134Z,96676.30
2018-01-29T18:51:34.278Z,96669.11
2018-01-29T18:54:01.893Z,96661.38
2018-01-29T18:56:29.499Z,96655.52
2018-01-29T18:58:57.086Z,96653.47
2018-01-29T19:01:24.706Z,96658.83
2018-01-29T19:03:52.295Z,96658.86
2018-01-29T19:06:19.969Z,96659.56
2018-01-29T19:08:47.546Z,96660.02
2018-01-29T19:11:15.490Z,96655.61
2018-01-29T19:13:43.109Z,96666.59
2018-01-29T19:16:10.729Z,96670.13
2018-01-29T19:18:38.293Z,96668.13
2018-01-29T19:21:07.211Z,96659.49
2018-01-29T19:23:36.743Z,96665.41
2018-01-29T19:26:04.418Z,96645.09
2018-01-29T19:28:32.020Z,96648.33
2018-01-29T19:31:00.074Z,96639.80
2018-01-29T19:33:29.446Z,96649.88
2018-01-29T19:35:57.030Z,96651.71
2018-01-29T19:38:27.640Z,96633.95
2018-01-29T19:40:56.371Z,96636.25
2018-01-29T19:43:24.774Z,96622.06
2018-01-29T19:45:52.367Z,96626.13
2018-01-29T19:48:19.942Z,96626.06
2018-01-29T19:50:47.509Z,96629.97
2018-01-29T19:53:15.610Z,96637.39
2018-01-29T19:55:43.349Z,96645.55
2018-01-29T19:58:11.513Z,96640.97
2018-01-29T20:00:39.071Z,96646.39
2018-01-29T20:03:06.680Z,96643.86
2018-01-29T20:05:34.265Z,96641.52
2018-01-29T20:08:01.849Z,96652.16
2018-01-29T20:10:29.780Z,96642.61
2018-01-29T20:12:57.530Z,96642.34
2018-01-29T20:15:25.204Z,96648.73
2018-01-29T20:17:52.854Z,96656.41
2018-01-29T20:20:20.398Z,96641.06
2018-01-29T20:22:48.037Z,96643.97
2018-01-29T20:25:15.630Z,96647.02
2018-01-29T20:27:43.255Z,96641.55
2018-01-29T20:30:10.809Z,96653.92
2018-01-29T20:32:38.384Z,96645.35
2018-01-29T20:35:06.009Z,96647.94
2018-01-29T20:37:34.338Z,96639.09
2018-01-29T20:40:02.263Z,96679.36
2018-01-29T20:42:29.812Z,96648.73
2018-01-29T20:44:57.377Z,96653.47
2018-01-29T20:47:25.345Z,96657.44
2018-01-29T20:49:52.929Z,96653.98
2018-01-29T20:52:20.535Z,96642.05
2018-01-29T20:54:48.105Z,96638.70
2018-01-29T20:57:15.685Z,96658.25
2018-01-29T20:59:43.237Z,96669.48
2018-01-29T21:05:00.971Z,96675.52
2018-01-29T21:07:28.549Z,96662.14
2018-01-29T21:09:56.149Z,96651.22
2018-01-29T21:12:24.581Z,96661.55
2018-01-29T21:14:52.184Z,96654.94
2018-01-29T21:17:19.829Z,96665.55
2018-01-29T21:19:47.447Z,96667.09
2018-01-29T21:22:15.144Z,96658.20
2018-01-29T21:24:42.698Z,96679.05
2018-01-29T21:27:11.159Z,96670.87
2018-01-29T21:29:38.734Z,96673.62
2018-01-29T21:32:06.315Z,96668.40
2018-01-29T21:34:33.922Z,96693.77
2018-01-29T21:37:01.502Z,96693.23
2018-01-29T21:39:29.085Z,96685.14
2018-01-29T21:41:56.704Z,96671.74
2018-01-29T21:44:25.209Z,96689.21
2018-01-29T21:46:52.770Z,96686.91
2018-01-29T21:49:20.607Z,96682.92
2018-01-29T21:51:48.233Z,96666.38
2018-01-29T21:54:15.878Z,96693.33
2018-01-29T21:56:43.511Z,96685.12
2018-01-29T21:59:11.134Z,96701.34
2018-01-29T22:01:38.705Z,96705.25
2018-01-29T22:04:06.615Z,96709.69
2018-01-29T22:06:34.189Z,96703.33
2018-01-29T22:09:01.997Z,96684.94
2018-01-29T22:11:29.676Z,96715.37
2018-01-29T22:13:57.257Z,96704.20
2018-01-29T22:16:24.869Z,96712.08
2018-01-29T22:18:52.529Z,96718.85
2018-01-29T22:21:20.099Z,96718.69
2018-01-29T22:23:47.807Z,96724.59
2018-01-29T22:26:15.506Z,96732.30
2018-01-29T22:28:43.073Z,96728.34
2018-01-29T22:31:10.754Z,96745.62
2018-01-29T22:33:38.333Z,96745.20
2018-01-29T22:36:06.139Z,96744.15
2018-01-29T22:38:33.705Z,96751.49
2018-01-29T22:41:01.277Z,96744.66
2018-01-29T22:43:29.022Z,96744.75
2018-01-29T22:45:56.696Z,96753.50
2018-01-29T22:48:24.305Z,96734.95
2018-01-29T22:50:51.881Z,96741.11
2018-01-29T22:53:19.650Z,96742.11
2018-01-29T22:55:47.270Z,96752.70
2018-01-29T22:58:14.842Z,96735.17
2018-01-29T23:00:42.391Z,96744.17
2018-01-29T23:03:11.658Z,96744.91
2018-01-29T23:05:39.282Z,96749.09
2018-01-29T23:08:06.832Z,96733.54
2018-01-29T23:10:34.420Z,96738.87
2018-01-29T23:13:01.999Z,96742.12
2018-01-29T23:15:29.654Z,96743.94
2018-01-29T23:17:57.606Z,96755.75
2018-01-29T23:20:25.164Z,96752.33
2018-01-29T23:22:52.731Z,96770.53
2018-01-29T23:25:20.297Z,96764.56
2018-01-29T23:27:47.897Z,96775.79
2018-01-29T23:30:15.524Z,96767.68
2018-01-29T23:32:43.121Z,96785.47
2018-01-29T23:35:10.902Z,96794.17
2018-01-29T23:37:38.525Z,96797.60
2018-01-29T23:40:06.140Z,96793.45
2018-01-29T23:42:34.891Z,96813.79
2018-01-29T23:45:03.563Z,96801.11
2018-01-29T23:47:31.128Z,96802.98
2018-01-29T23:49:58.721Z,96803.12
2018-01-29T23:52:26.316Z,96821.09
2018-01-29T23:54:57.592Z,96822.56
2018-01-29T23:57:25.163Z,96809.59
2018-01-29T23:59:52.774Z,96807.95
